createdAt,value
2023-03-06T00:00:47.912Z,7.60
2023-03-06T00:01:47.919Z,7.30
2023-03-06T00:02:47.899Z,7.10
2023-03-06T00:03:47.932Z,7.50
2023-03-06T00:04:47.856Z,7.80
2023-03-06T00:05:47.921Z,7.60
2023-03-06T00:06:47.849Z,7.60
2023-03-06T00:07:47.830Z,7.90
2023-03-06T00:08:47.819Z,7.90
2023-03-06T00:09:47.795Z,7.80
2023-03-06T00:10:47.785Z,8.10
2023-03-06T00:11:47.783Z,7.80
2023-03-06T00:12:47.754Z,7.80
2023-03-06T00:13:47.743Z,8.10
2023-03-06T00:14:47.739Z,8.40
2023-03-06T00:15:47.716Z,8.00
2023-03-06T00:16:47.723Z,8.50
2023-03-06T00:17:47.695Z,7.80
2023-03-06T00:18:47.694Z,7.20
2023-03-06T00:19:47.670Z,7.70
2023-03-06T00:20:47.677Z,7.60
2023-03-06T00:21:47.653Z,8.00
2023-03-06T00:22:47.634Z,7.90
2023-03-06T00:23:47.616Z,8.20
2023-03-06T00:24:47.614Z,7.50
2023-03-06T00:25:47.608Z,8.10
2023-03-06T00:26:47.610Z,7.70
2023-03-06T00:27:47.585Z,7.50
2023-03-06T00:28:47.579Z,7.90
2023-03-06T00:29:47.552Z,8.10
2023-03-06T00:30:47.555Z,8.00
2023-03-06T00:31:47.572Z,7.90
2023-03-06T00:32:47.519Z,8.30
2023-03-06T00:33:47.492Z,8.20
2023-03-06T00:34:47.489Z,7.90
2023-03-06T00:35:47.518Z,8.10
2023-03-06T00:36:47.469Z,8.40
2023-03-06T00:37:47.442Z,7.70
2023-03-06T00:38:47.440Z,8.40
2023-03-06T00:39:47.411Z,8.90
2023-03-06T00:40:47.414Z,8.60
2023-03-06T00:41:47.398Z,8.10
2023-03-06T00:42:47.390Z,8.50
2023-03-06T00:43:47.374Z,8.50
2023-03-06T00:44:47.363Z,9.20
2023-03-06T00:45:47.370Z,8.50
2023-03-06T00:46:47.347Z,8.60
2023-03-06T00:47:47.332Z,9.20
2023-03-06T00:48:47.317Z,9.20
2023-03-06T00:49:47.292Z,8.60
2023-03-06T00:50:47.294Z,8.90
2023-03-06T00:51:47.285Z,9.30
2023-03-06T00:52:47.268Z,8.30
2023-03-06T00:53:47.236Z,8.90
2023-03-06T00:54:47.234Z,8.60
2023-03-06T00:55:47.224Z,8.90
2023-03-06T00:56:47.212Z,9.20
2023-03-06T00:57:47.198Z,8.80
2023-03-06T00:58:47.282Z,9.20
2023-03-06T00:59:47.171Z,8.80
2023-03-06T01:00:47.183Z,8.90
2023-03-06T01:01:47.148Z,9.30
2023-03-06T01:02:47.136Z,9.80
2023-03-06T01:03:47.110Z,9.50
2023-03-06T01:04:47.116Z,10.20
2023-03-06T01:05:47.079Z,9.40
2023-03-06T01:06:47.092Z,9.40
2023-03-06T01:07:47.064Z,9.80
2023-03-06T01:08:47.074Z,9.60
2023-03-06T01:09:47.028Z,9.80
2023-03-06T01:10:47.038Z,9.30
2023-03-06T01:11:47.021Z,9.70
2023-03-06T01:12:47.005Z,9.10
2023-03-06T01:13:46.979Z,9.30
2023-03-06T01:14:46.979Z,9.10
2023-03-06T01:15:46.957Z,9.40
2023-03-06T01:16:47.032Z,9.10
2023-03-06T01:17:46.939Z,8.80
2023-03-06T01:18:46.917Z,9.30
2023-03-06T01:19:46.908Z,9.40
2023-03-06T01:20:46.902Z,9.10
2023-03-06T01:21:46.934Z,8.70
2023-03-06T01:22:46.869Z,9.00
2023-03-06T01:23:46.855Z,8.20
2023-03-06T01:24:46.846Z,8.80
2023-03-06T01:25:46.834Z,9.20
2023-03-06T01:26:46.850Z,9.00
2023-03-06T01:27:46.802Z,8.40
2023-03-06T01:28:46.798Z,8.70
2023-03-06T01:29:46.780Z,8.40
2023-03-06T01:30:46.771Z,8.30
2023-03-06T01:31:46.846Z,8.60
2023-03-06T01:32:46.739Z,8.50
2023-03-06T01:33:46.749Z,8.70
2023-03-06T01:34:46.737Z,8.30
2023-03-06T01:35:46.762Z,8.50
2023-03-06T01:36:46.707Z,8.20
2023-03-06T01:37:46.683Z,8.30
2023-03-06T01:38:46.668Z,8.30
2023-03-06T01:39:46.664Z,7.90
2023-03-06T01:40:46.651Z,8.30
2023-03-06T01:41:46.639Z,8.30
2023-03-06T01:42:46.924Z,8.80
2023-03-06T01:43:46.604Z,7.80
2023-03-06T01:44:46.592Z,8.10
2023-03-06T01:45:46.592Z,8.20
2023-03-06T01:46:46.586Z,7.80
2023-03-06T01:47:46.562Z,8.50
2023-03-06T01:48:46.548Z,8.30
2023-03-06T01:49:46.539Z,8.10
2023-03-06T01:50:46.530Z,8.40
2023-03-06T01:51:46.520Z,8.40
2023-03-06T01:52:46.495Z,7.80
2023-03-06T01:53:46.482Z,8.10
2023-03-06T01:54:46.479Z,8.40
2023-03-06T01:55:46.451Z,7.70
2023-03-06T01:56:46.465Z,7.70
2023-03-06T01:57:46.439Z,8.40
2023-03-06T01:58:46.420Z,7.60
2023-03-06T01:59:46.425Z,7.90
2023-03-06T02:00:46.435Z,8.30
2023-03-06T02:01:46.402Z,7.40
2023-03-06T02:02:46.372Z,8.20
2023-03-06T02:03:46.362Z,8.10
2023-03-06T02:04:46.349Z,7.90
2023-03-06T02:05:46.344Z,7.70
2023-03-06T02:06:46.328Z,8.00
2023-03-06T02:07:46.317Z,8.20
2023-03-06T02:08:46.303Z,7.40
2023-03-06T02:09:46.282Z,7.70
2023-03-06T02:10:46.269Z,7.80
2023-03-06T02:11:46.399Z,8.00
2023-03-06T02:12:46.261Z,8.10
2023-03-06T02:13:46.231Z,8.40
2023-03-06T02:14:46.221Z,7.90
2023-03-06T02:15:46.200Z,8.00
2023-03-06T02:16:46.268Z,8.10
2023-03-06T02:17:46.202Z,7.90
2023-03-06T02:18:46.189Z,8.00
2023-03-06T02:19:46.157Z,7.70
2023-03-06T02:20:46.156Z,8.90
2023-03-06T02:21:46.137Z,8.30
2023-03-06T02:22:46.135Z,8.10
2023-03-06T02:23:46.112Z,8.30
2023-03-06T02:24:46.100Z,8.20
2023-03-06T02:25:46.090Z,8.50
2023-03-06T02:26:46.076Z,8.10
2023-03-06T02:27:46.057Z,8.00
2023-03-06T02:28:46.061Z,8.20
2023-03-06T02:29:46.027Z,8.10
2023-03-06T02:30:46.075Z,8.20
2023-03-06T02:31:46.009Z,8.30
2023-03-06T02:32:46.023Z,8.30
2023-03-06T02:33:45.977Z,8.10
2023-03-06T02:34:45.981Z,8.00
2023-03-06T02:35:45.972Z,8.00
2023-03-06T02:36:45.946Z,8.10
2023-03-06T02:37:45.957Z,7.90
2023-03-06T02:38:45.936Z,7.80
2023-03-06T02:39:45.908Z,7.90
2023-03-06T02:40:45.896Z,7.80
2023-03-06T02:41:45.901Z,8.20
2023-03-06T02:42:45.885Z,7.90
2023-03-06T02:43:45.854Z,7.50
2023-03-06T02:44:45.846Z,8.40
2023-03-06T02:45:45.846Z,8.40
2023-03-06T02:46:45.829Z,8.00
2023-03-06T02:47:45.810Z,8.30
2023-03-06T02:48:45.798Z,7.90
2023-03-06T02:49:45.769Z,8.30
2023-03-06T02:50:45.760Z,8.50
2023-03-06T02:51:45.787Z,8.40
2023-03-06T02:52:45.751Z,8.70
2023-03-06T02:53:45.718Z,7.90
2023-03-06T02:54:45.716Z,8.70
2023-03-06T02:55:45.699Z,8.80
2023-03-06T02:56:45.688Z,8.00
2023-03-06T02:57:45.679Z,8.20
2023-03-06T02:58:45.665Z,8.70
2023-03-06T02:59:45.648Z,8.50
2023-03-06T03:00:45.636Z,8.60
2023-03-06T03:01:45.726Z,7.90
2023-03-06T03:02:45.630Z,7.90
2023-03-06T03:03:45.591Z,8.20
2023-03-06T03:04:45.648Z,8.40
2023-03-06T03:05:45.567Z,7.80
2023-03-06T03:06:45.566Z,8.30
2023-03-06T03:07:45.554Z,8.20
2023-03-06T03:08:45.540Z,8.50
2023-03-06T03:09:45.512Z,8.20
2023-03-06T03:10:45.511Z,7.90
2023-03-06T03:11:45.485Z,8.20
2023-03-06T03:12:45.502Z,8.20
2023-03-06T03:13:45.465Z,8.50
2023-03-06T03:14:45.461Z,7.80
2023-03-06T03:15:45.494Z,7.80
2023-03-06T03:16:45.492Z,8.50
2023-03-06T03:17:45.428Z,8.10
2023-03-06T03:18:45.409Z,7.90
2023-03-06T03:19:45.390Z,8.40
2023-03-06T03:20:45.381Z,9.20
2023-03-06T03:21:45.361Z,8.10
2023-03-06T03:22:45.370Z,8.30
2023-03-06T03:23:45.446Z,8.70
2023-03-06T03:24:45.352Z,8.40
2023-03-06T03:25:45.302Z,8.60
2023-03-06T03:26:45.308Z,7.90
2023-03-06T03:27:45.345Z,8.20
2023-03-06T03:28:45.281Z,8.20
2023-03-06T03:29:45.271Z,8.00
2023-03-06T03:30:45.398Z,8.50
2023-03-06T03:31:45.231Z,8.00
2023-03-06T03:32:45.250Z,8.60
2023-03-06T03:33:45.217Z,8.90
2023-03-06T03:34:45.219Z,8.60
2023-03-06T03:35:45.204Z,9.00
2023-03-06T03:36:45.170Z,8.40
2023-03-06T03:37:45.151Z,8.40
2023-03-06T03:38:45.152Z,8.10
2023-03-06T03:39:45.133Z,8.40
2023-03-06T03:40:45.120Z,8.20
2023-03-06T03:41:45.110Z,8.20
2023-03-06T03:42:45.099Z,8.10
2023-03-06T03:43:45.100Z,8.70
2023-03-06T03:44:45.082Z,8.60
2023-03-06T03:45:45.069Z,8.90
2023-03-06T03:46:45.114Z,9.00
2023-03-06T03:47:45.041Z,8.80
2023-03-06T03:48:45.064Z,8.90
2023-03-06T03:49:45.020Z,8.40
2023-03-06T03:50:44.999Z,8.70
2023-03-06T03:51:44.988Z,8.70
2023-03-06T03:52:44.989Z,8.50
2023-03-06T03:53:44.967Z,9.30
2023-03-06T03:54:44.953Z,9.10
2023-03-06T03:55:44.945Z,9.60
2023-03-06T03:56:44.928Z,9.40
2023-03-06T03:57:44.901Z,9.00
2023-03-06T03:58:44.906Z,9.10
2023-03-06T03:59:44.892Z,9.00
2023-03-06T04:00:44.866Z,8.80
2023-03-06T04:01:44.884Z,9.30
2023-03-06T04:02:44.857Z,9.30
2023-03-06T04:03:44.854Z,9.40
2023-03-06T04:04:44.925Z,9.20
2023-03-06T04:05:44.805Z,9.20
2023-03-06T04:06:44.793Z,9.20
2023-03-06T04:07:44.782Z,9.80
2023-03-06T04:08:44.766Z,9.10
2023-03-06T04:09:44.767Z,9.20
2023-03-06T04:10:44.730Z,8.70
2023-03-06T04:11:44.746Z,9.90
2023-03-06T04:12:44.713Z,9.60
2023-03-06T04:13:44.711Z,9.50
2023-03-06T04:14:44.679Z,9.00
2023-03-06T04:15:44.670Z,9.00
2023-03-06T04:16:44.670Z,9.00
2023-03-06T04:17:44.652Z,9.30
2023-03-06T04:18:44.660Z,9.00
2023-03-06T04:19:44.623Z,8.60
2023-03-06T04:20:44.600Z,9.00
2023-03-06T04:21:44.591Z,8.80
2023-03-06T04:22:44.577Z,7.60
2023-03-06T04:23:44.575Z,8.40
2023-03-06T04:24:44.599Z,8.30
2023-03-06T04:25:44.571Z,8.10
2023-03-06T04:26:44.547Z,8.10
2023-03-06T04:27:44.592Z,8.40
2023-03-06T04:28:44.507Z,8.40
2023-03-06T04:29:44.489Z,8.60
2023-03-06T04:30:44.485Z,8.20
2023-03-06T04:31:44.565Z,8.20
2023-03-06T04:32:44.480Z,8.40
2023-03-06T04:33:44.460Z,7.60
2023-03-06T04:34:44.451Z,8.00
2023-03-06T04:35:44.445Z,8.10
2023-03-06T04:36:44.398Z,8.10
2023-03-06T04:37:44.388Z,7.80
2023-03-06T04:38:44.488Z,8.00
2023-03-06T04:39:44.359Z,7.90
2023-03-06T04:40:45.001Z,8.60
2023-03-06T04:41:44.338Z,8.10
2023-03-06T04:42:44.317Z,8.00
2023-03-06T04:43:44.326Z,7.70
2023-03-06T04:44:44.299Z,7.90
2023-03-06T04:45:44.341Z,7.60
2023-03-06T04:46:44.274Z,8.70
2023-03-06T04:47:44.256Z,9.30
2023-03-06T04:48:44.258Z,8.60
2023-03-06T04:49:44.234Z,8.30
2023-03-06T04:50:44.231Z,8.60
2023-03-06T04:51:44.206Z,9.30
2023-03-06T04:52:44.194Z,9.10
2023-03-06T04:53:44.186Z,9.10
2023-03-06T04:54:44.175Z,9.40
2023-03-06T04:55:44.168Z,9.50
2023-03-06T04:56:44.153Z,9.30
2023-03-06T04:57:44.138Z,9.50
2023-03-06T04:58:44.142Z,8.50
2023-03-06T04:59:44.131Z,9.60
2023-03-06T05:00:44.122Z,9.20
2023-03-06T05:01:44.072Z,8.50
2023-03-06T05:02:44.067Z,8.90
2023-03-06T05:03:44.066Z,8.60
2023-03-06T05:04:44.046Z,9.10
2023-03-06T05:05:44.035Z,8.80
2023-03-06T05:06:44.026Z,8.80
2023-03-06T05:07:43.996Z,9.20
2023-03-06T05:08:43.989Z,9.10
2023-03-06T05:09:43.968Z,9.00
2023-03-06T05:10:43.956Z,9.00
2023-03-06T05:11:43.946Z,8.40
2023-03-06T05:12:43.934Z,8.30
2023-03-06T05:13:43.943Z,8.10
2023-03-06T05:14:43.925Z,8.10
2023-03-06T05:15:43.898Z,9.50
2023-03-06T05:16:44.025Z,8.90
2023-03-06T05:17:43.871Z,8.80
2023-03-06T05:18:43.876Z,7.60
2023-03-06T05:19:43.854Z,7.70
2023-03-06T05:20:43.833Z,9.10
2023-03-06T05:21:43.839Z,8.10
2023-03-06T05:22:43.881Z,8.30
2023-03-06T05:23:43.860Z,8.40
2023-03-06T05:24:43.772Z,8.10
2023-03-06T05:25:43.812Z,8.80
2023-03-06T05:26:43.751Z,8.60
2023-03-06T05:27:43.796Z,9.90
2023-03-06T05:28:43.743Z,10.10
2023-03-06T05:29:43.710Z,9.60
2023-03-06T05:30:43.706Z,9.40
2023-03-06T05:31:43.739Z,10.10
2023-03-06T05:32:43.688Z,9.40
2023-03-06T05:33:43.696Z,9.80
2023-03-06T05:34:43.663Z,9.90
2023-03-06T05:35:43.702Z,9.30
2023-03-06T05:36:43.622Z,8.60
2023-03-06T05:37:43.623Z,10.10
2023-03-06T05:38:43.631Z,9.10
2023-03-06T05:39:43.599Z,8.80
2023-03-06T05:40:43.583Z,9.90
2023-03-06T05:41:43.570Z,9.40
2023-03-06T05:42:43.550Z,9.20
2023-03-06T05:43:43.553Z,10.90
2023-03-06T05:44:43.532Z,10.00
2023-03-06T05:45:43.591Z,9.80
2023-03-06T05:46:43.500Z,9.10
2023-03-06T05:47:43.495Z,9.90
2023-03-06T05:48:45.306Z,9.90
2023-03-06T05:49:43.478Z,9.80
2023-03-06T05:50:43.451Z,8.90
2023-03-06T05:51:43.449Z,9.00
2023-03-06T05:52:43.435Z,9.10
2023-03-06T05:53:43.431Z,9.00
2023-03-06T05:54:43.438Z,8.80
2023-03-06T05:55:43.397Z,8.40
2023-03-06T05:56:43.376Z,8.30
2023-03-06T05:57:43.382Z,8.40
2023-03-06T05:58:43.347Z,8.50
2023-03-06T05:59:43.374Z,8.90
2023-03-06T06:00:43.315Z,9.20
2023-03-06T06:01:43.340Z,8.90
2023-03-06T06:02:43.315Z,8.50
2023-03-06T06:03:43.376Z,9.10
2023-03-06T06:04:43.276Z,8.70
2023-03-06T06:05:43.261Z,8.40
2023-03-06T06:06:43.239Z,8.30
2023-03-06T06:07:43.235Z,8.50
2023-03-06T06:08:43.212Z,8.30
2023-03-06T06:09:43.234Z,8.40
2023-03-06T06:10:43.198Z,8.10
2023-03-06T06:11:43.183Z,8.00
2023-03-06T06:12:43.173Z,8.60
2023-03-06T06:13:43.165Z,9.60
2023-03-06T06:14:43.154Z,9.40
2023-03-06T06:15:43.157Z,9.50
2023-03-06T06:16:43.122Z,8.80
2023-03-06T06:17:43.102Z,7.80
2023-03-06T06:18:43.098Z,8.20
2023-03-06T06:19:43.084Z,9.00
2023-03-06T06:20:43.060Z,8.70
2023-03-06T06:21:43.053Z,8.80
2023-03-06T06:22:43.049Z,9.40
2023-03-06T06:23:43.029Z,9.80
2023-03-06T06:24:43.023Z,9.80
2023-03-06T06:25:43.009Z,9.90
2023-03-06T06:26:42.993Z,11.10
2023-03-06T06:27:42.983Z,10.70
2023-03-06T06:28:42.983Z,11.20
2023-03-06T06:29:42.966Z,10.20
2023-03-06T06:30:42.928Z,10.40
2023-03-06T06:31:42.928Z,9.70
2023-03-06T06:32:42.930Z,10.40
2023-03-06T06:33:42.917Z,10.50
2023-03-06T06:34:42.889Z,10.40
2023-03-06T06:35:42.946Z,9.80
2023-03-06T06:36:42.856Z,9.60
2023-03-06T06:37:42.854Z,9.50
2023-03-06T06:38:42.830Z,8.80
2023-03-06T06:39:42.845Z,10.60
2023-03-06T06:40:42.805Z,9.60
2023-03-06T06:41:59.456Z,9.30
2023-03-06T06:42:43.788Z,10.10
2023-03-06T06:43:42.777Z,9.90
2023-03-06T06:44:42.774Z,10.10
2023-03-06T06:45:42.744Z,11.30
2023-03-06T06:47:43.771Z,11.50
2023-03-06T06:48:42.711Z,12.00
2023-03-06T06:49:42.704Z,11.10
2023-03-06T06:50:42.679Z,11.80
2023-03-06T06:51:42.707Z,12.00
2023-03-06T06:52:42.672Z,11.40
2023-03-06T06:53:42.645Z,11.80
2023-03-06T06:54:42.642Z,11.70
2023-03-06T06:55:42.620Z,11.00
2023-03-06T06:56:42.613Z,10.80
2023-03-06T06:57:42.603Z,10.70
2023-03-06T06:58:42.571Z,11.70
2023-03-06T06:59:42.592Z,11.50
2023-03-06T07:00:42.551Z,11.00
2023-03-06T07:01:42.581Z,11.40
2023-03-06T07:02:42.527Z,11.30
2023-03-06T07:03:42.540Z,10.40
2023-03-06T07:05:00.235Z,10.00
2023-03-06T07:05:43.490Z,10.10
2023-03-06T07:06:42.476Z,10.60
2023-03-06T07:07:42.460Z,10.40
2023-03-06T07:08:42.454Z,11.10
2023-03-06T07:09:42.463Z,11.10
2023-03-06T07:10:42.420Z,11.20
2023-03-06T07:11:42.428Z,11.90
2023-03-06T07:12:42.423Z,11.30
2023-03-06T07:13:42.396Z,12.70
2023-03-06T07:14:42.417Z,11.80
2023-03-06T07:15:42.371Z,11.60
2023-03-06T07:16:42.353Z,11.10
2023-03-06T07:17:42.336Z,11.60
2023-03-06T07:18:42.323Z,10.70
2023-03-06T07:19:42.328Z,11.50
2023-03-06T07:20:42.298Z,10.70
2023-03-06T07:21:42.286Z,10.80
2023-03-06T07:22:50.727Z,11.10
2023-03-06T07:23:43.260Z,10.70
2023-03-06T07:24:42.254Z,10.80
2023-03-06T07:25:42.237Z,10.60
2023-03-06T07:26:42.216Z,10.00
2023-03-06T07:27:42.279Z,10.20
2023-03-06T07:28:51.920Z,10.50
2023-03-06T07:29:43.201Z,11.20
2023-03-06T07:30:42.178Z,11.00
2023-03-06T07:31:42.202Z,10.50
2023-03-06T07:32:42.215Z,10.80
2023-03-06T07:33:42.134Z,11.70
2023-03-06T07:34:42.140Z,11.90
2023-03-06T07:35:42.137Z,12.80
2023-03-06T07:36:42.093Z,13.00
2023-03-06T07:37:42.074Z,13.40
2023-03-06T07:38:42.055Z,13.20
2023-03-06T07:39:42.079Z,13.00
2023-03-06T07:40:42.033Z,13.00
2023-03-06T07:41:42.035Z,13.30
2023-03-06T07:42:42.008Z,13.50
2023-03-06T07:43:42.007Z,13.90
2023-03-06T07:44:42.000Z,13.60
2023-03-06T07:45:41.998Z,13.80
2023-03-06T07:46:42.023Z,13.90
2023-03-06T07:47:41.957Z,13.90
2023-03-06T07:48:41.951Z,14.00
2023-03-06T07:49:41.964Z,13.50
2023-03-06T07:50:41.938Z,14.60
2023-03-06T07:51:41.909Z,13.70
2023-03-06T07:52:41.884Z,14.50
2023-03-06T07:53:41.882Z,14.10
2023-03-06T07:54:41.877Z,14.20
2023-03-06T07:55:41.857Z,14.40
2023-03-06T07:56:41.834Z,14.70
2023-03-06T07:57:41.825Z,14.20
2023-03-06T07:58:41.816Z,14.40
2023-03-06T07:59:41.828Z,15.30
2023-03-06T08:00:41.793Z,14.60
2023-03-06T08:01:41.781Z,14.80
2023-03-06T08:02:41.868Z,15.50
2023-03-06T08:03:41.769Z,15.80
2023-03-06T08:04:41.746Z,15.00
2023-03-06T08:05:41.736Z,16.10
2023-03-06T08:06:41.707Z,15.00
2023-03-06T08:07:41.701Z,15.20
2023-03-06T08:08:41.686Z,15.30
2023-03-06T08:09:41.682Z,15.10
2023-03-06T08:10:41.657Z,15.70
2023-03-06T08:11:41.651Z,15.50
2023-03-06T08:12:41.633Z,15.20
2023-03-06T08:13:41.640Z,15.60
2023-03-06T08:14:41.647Z,15.60
2023-03-06T08:15:41.589Z,15.00
2023-03-06T08:16:41.602Z,15.30
2023-03-06T08:17:41.576Z,15.40
2023-03-06T08:18:42.201Z,15.40
2023-03-06T08:19:41.537Z,15.40
2023-03-06T08:20:41.542Z,15.50
2023-03-06T08:21:41.520Z,15.40
2023-03-06T08:22:41.504Z,15.90
2023-03-06T08:23:41.484Z,15.50
2023-03-06T08:24:41.491Z,15.60
2023-03-06T08:25:41.476Z,15.90
2023-03-06T08:26:41.462Z,15.60
2023-03-06T08:27:41.456Z,15.70
2023-03-06T08:28:41.434Z,15.60
2023-03-06T08:29:41.404Z,14.80
2023-03-06T08:30:41.413Z,15.40
2023-03-06T08:31:41.400Z,16.10
2023-03-06T08:32:41.462Z,15.50
2023-03-06T08:33:41.363Z,16.10
2023-03-06T08:34:41.355Z,17.20
2023-03-06T08:35:41.404Z,16.20
2023-03-06T08:36:41.318Z,17.10
2023-03-06T08:37:41.334Z,16.60
2023-03-06T08:38:41.297Z,17.30
2023-03-06T08:39:41.270Z,16.40
2023-03-06T08:40:41.274Z,17.20
2023-03-06T08:41:41.261Z,17.00
2023-03-06T08:42:41.240Z,16.40
2023-03-06T08:43:41.222Z,17.10
2023-03-06T08:44:41.220Z,17.40
2023-03-06T08:45:41.288Z,17.20
2023-03-06T08:46:41.198Z,16.80
2023-03-06T08:47:41.211Z,16.60
2023-03-06T08:48:41.168Z,17.10
2023-03-06T08:49:41.148Z,17.50
2023-03-06T08:50:41.151Z,17.40
2023-03-06T08:51:41.126Z,17.40
2023-03-06T08:52:41.119Z,18.10
2023-03-06T08:53:43.565Z,17.50
2023-03-06T08:54:41.085Z,17.30
2023-03-06T08:55:41.093Z,17.20
2023-03-06T08:56:41.128Z,16.60
2023-03-06T08:57:41.045Z,17.50
2023-03-06T08:58:41.066Z,17.60
2023-03-06T08:59:41.022Z,16.80
2023-03-06T09:00:41.069Z,17.40
2023-03-06T09:01:41.003Z,16.50
2023-03-06T09:02:41.061Z,17.10
2023-03-06T09:03:40.975Z,17.40
2023-03-06T09:04:40.966Z,17.60
2023-03-06T09:05:40.970Z,16.80
2023-03-06T09:06:40.946Z,17.30
2023-03-06T09:07:40.934Z,17.30
2023-03-06T09:08:40.913Z,17.30
2023-03-06T09:09:40.900Z,17.80
2023-03-06T09:10:40.955Z,17.50
2023-03-06T09:11:40.892Z,17.70
2023-03-06T09:12:50.541Z,17.10
2023-03-06T09:13:41.848Z,17.50
2023-03-06T09:14:40.830Z,16.40
2023-03-06T09:15:40.833Z,17.00
2023-03-06T09:16:40.834Z,17.20
2023-03-06T09:17:40.827Z,17.00
2023-03-06T09:18:40.778Z,17.20
2023-03-06T09:19:40.785Z,17.30
2023-03-06T09:20:40.763Z,17.60
2023-03-06T09:21:40.747Z,17.00
2023-03-06T09:22:40.762Z,17.00
2023-03-06T09:23:40.712Z,17.60
2023-03-06T09:24:40.704Z,18.50
2023-03-06T09:25:40.703Z,18.20
2023-03-06T09:26:45.911Z,18.00
2023-03-06T09:27:41.664Z,19.60
2023-03-06T09:28:40.769Z,18.40
2023-03-06T09:29:40.644Z,17.60
2023-03-06T09:30:40.691Z,18.40
2023-03-06T09:31:40.636Z,18.50
2023-03-06T09:32:40.660Z,18.80
2023-03-06T09:33:40.606Z,17.70
2023-03-06T09:34:40.641Z,19.00
2023-03-06T09:35:40.618Z,19.30
2023-03-06T09:36:55.634Z,18.50
2023-03-06T09:37:41.532Z,19.70
2023-03-06T09:38:40.545Z,19.90
2023-03-06T09:39:40.503Z,19.80
2023-03-06T09:40:40.514Z,20.10
2023-03-06T09:41:40.483Z,19.20
2023-03-06T09:42:40.486Z,19.70
2023-03-06T09:43:40.451Z,18.70
2023-03-06T09:44:40.439Z,19.40
2023-03-06T09:45:40.481Z,19.40
2023-03-06T09:46:40.424Z,20.40
2023-03-06T09:47:40.410Z,19.80
2023-03-06T09:48:40.417Z,20.20
2023-03-06T09:49:40.389Z,19.60
2023-03-06T09:50:40.386Z,19.40
2023-03-06T09:51:40.359Z,19.70
2023-03-06T09:52:40.358Z,19.10
2023-03-06T09:53:40.322Z,19.50
2023-03-06T09:54:40.314Z,19.00
2023-03-06T09:55:40.321Z,19.00
2023-03-06T09:56:40.297Z,19.90
2023-03-06T09:57:40.264Z,19.50
2023-03-06T09:58:40.261Z,20.20
2023-03-06T09:59:40.234Z,19.30
2023-03-06T10:00:40.262Z,19.20
2023-03-06T10:01:40.220Z,18.30
2023-03-06T10:02:40.365Z,18.80
2023-03-06T10:03:40.181Z,19.00
2023-03-06T10:04:40.211Z,18.90
2023-03-06T10:05:40.191Z,18.40
2023-03-06T10:06:40.172Z,18.90
2023-03-06T10:07:40.159Z,18.30
2023-03-06T10:08:40.134Z,18.40
2023-03-06T10:09:40.109Z,19.00
2023-03-06T10:10:40.122Z,18.40
2023-03-06T10:11:40.098Z,18.50
2023-03-06T10:12:40.081Z,18.50
2023-03-06T10:13:40.120Z,18.40
2023-03-06T10:14:40.057Z,17.70
2023-03-06T10:15:40.097Z,18.50
2023-03-06T10:16:40.028Z,18.00
2023-03-06T10:17:40.971Z,18.10
2023-03-06T10:18:40.006Z,17.80
2023-03-06T10:19:39.983Z,18.00
2023-03-06T10:20:40.013Z,18.00
2023-03-06T10:21:40.049Z,17.40
2023-03-06T10:22:39.953Z,18.30
2023-03-06T10:23:39.958Z,18.80
2023-03-06T10:24:39.921Z,18.30
2023-03-06T10:25:39.922Z,18.70
2023-03-06T10:26:40.077Z,18.10
2023-03-06T10:27:39.916Z,18.40
2023-03-06T10:28:39.871Z,18.40
2023-03-06T10:29:41.026Z,18.80
2023-03-06T10:30:39.860Z,18.00
2023-03-06T10:31:39.819Z,17.40
2023-03-06T10:32:48.197Z,17.80
2023-03-06T10:33:40.805Z,18.40
2023-03-06T10:34:39.799Z,18.40
2023-03-06T10:35:39.861Z,18.40
2023-03-06T10:36:39.760Z,18.70
2023-03-06T10:37:39.748Z,18.20
2023-03-06T10:38:39.830Z,18.10
2023-03-06T10:39:39.729Z,18.30
2023-03-06T10:40:39.728Z,17.90
2023-03-06T10:41:39.703Z,18.40
2023-03-06T10:42:39.701Z,17.50
2023-03-06T10:43:39.678Z,17.40
2023-03-06T10:44:39.682Z,18.10
2023-03-06T10:45:48.928Z,18.20
2023-03-06T10:46:40.774Z,17.30
2023-03-06T10:47:39.619Z,17.50
2023-03-06T10:48:41.715Z,17.20
2023-03-06T10:49:39.614Z,18.30
2023-03-06T10:50:39.622Z,18.60
2023-03-06T10:51:39.570Z,18.60
2023-03-06T10:52:39.568Z,18.10
2023-03-06T10:53:39.547Z,17.80
2023-03-06T10:54:39.552Z,17.50
2023-03-06T10:55:39.551Z,18.70
2023-03-06T10:56:39.534Z,18.70
2023-03-06T10:57:39.494Z,18.30
2023-03-06T10:58:39.488Z,18.60
2023-03-06T10:59:39.475Z,18.00
2023-03-06T11:00:39.469Z,18.90
2023-03-06T11:01:39.467Z,18.10
2023-03-06T11:02:39.463Z,17.70
2023-03-06T11:03:39.423Z,18.50
2023-03-06T11:04:39.454Z,18.20
2023-03-06T11:05:39.409Z,17.40
2023-03-06T11:06:39.379Z,17.60
2023-03-06T11:07:39.378Z,17.70
2023-03-06T11:08:39.358Z,18.10
2023-03-06T11:09:39.360Z,18.00
2023-03-06T11:10:39.343Z,17.20
2023-03-06T11:11:39.333Z,17.70
2023-03-06T11:12:39.320Z,17.60
2023-03-06T11:13:39.289Z,18.00
2023-03-06T11:14:39.325Z,17.40
2023-03-06T11:15:39.283Z,18.10
2023-03-06T11:16:39.259Z,18.50
2023-03-06T11:17:39.238Z,18.90
2023-03-06T11:18:39.256Z,18.90
2023-03-06T11:19:39.206Z,17.90
2023-03-06T11:20:50.970Z,18.70
2023-03-06T11:21:40.190Z,17.90
2023-03-06T11:22:39.235Z,18.80
2023-03-06T11:23:39.195Z,18.10
2023-03-06T11:24:39.140Z,18.20
2023-03-06T11:25:39.139Z,18.80
2023-03-06T11:26:39.120Z,17.20
2023-03-06T11:27:39.120Z,18.50
2023-03-06T11:28:39.089Z,17.30
2023-03-06T11:29:39.213Z,18.00
2023-03-06T11:30:39.082Z,18.50
2023-03-06T11:31:39.138Z,17.90
2023-03-06T11:32:39.074Z,17.60
2023-03-06T11:33:39.029Z,17.70
2023-03-06T11:34:39.023Z,17.70
2023-03-06T11:35:39.038Z,17.30
2023-03-06T11:36:38.991Z,17.10
2023-03-06T11:37:38.970Z,17.20
2023-03-06T11:38:38.976Z,17.80
2023-03-06T11:39:38.949Z,17.70
2023-03-06T11:40:38.937Z,18.10
2023-03-06T11:41:38.925Z,17.90
2023-03-06T11:42:38.903Z,18.50
2023-03-06T11:43:38.898Z,17.80
2023-03-06T11:44:38.878Z,17.50
2023-03-06T11:45:38.870Z,18.40
2023-03-06T11:46:38.952Z,17.50
2023-03-06T11:47:38.842Z,16.90
2023-03-06T11:48:38.832Z,17.70
2023-03-06T11:49:38.823Z,17.60
2023-03-06T11:50:38.814Z,15.90
2023-03-06T11:51:38.801Z,16.40
2023-03-06T11:52:38.770Z,16.70
2023-03-06T11:53:38.772Z,16.10
2023-03-06T11:54:38.764Z,15.50
2023-03-06T11:55:38.757Z,15.60
2023-03-06T11:56:38.738Z,14.90
2023-03-06T11:57:38.717Z,14.40
2023-03-06T11:58:38.709Z,13.90
2023-03-06T11:59:38.708Z,14.10
2023-03-06T12:00:38.683Z,14.10
2023-03-06T12:01:38.731Z,13.50
2023-03-06T12:02:38.661Z,13.90
2023-03-06T12:03:38.642Z,12.90
2023-03-06T12:04:38.636Z,13.50
2023-03-06T12:05:38.659Z,13.10
2023-03-06T12:06:38.618Z,13.20
2023-03-06T12:07:38.590Z,14.00
2023-03-06T12:08:38.583Z,14.30
2023-03-06T12:09:38.566Z,13.60
2023-03-06T12:10:38.582Z,14.00
2023-03-06T12:11:38.552Z,13.60
2023-03-06T12:12:38.529Z,13.30
2023-03-06T12:13:38.501Z,13.90
2023-03-06T12:14:38.516Z,13.50
2023-03-06T12:15:38.521Z,13.40
2023-03-06T12:16:38.654Z,13.30
2023-03-06T12:17:38.455Z,12.70
2023-03-06T12:18:38.444Z,13.50
2023-03-06T12:19:38.428Z,13.40
2023-03-06T12:20:38.464Z,13.60
2023-03-06T12:21:38.420Z,13.50
2023-03-06T12:22:38.390Z,13.60
2023-03-06T12:23:38.378Z,14.00
2023-03-06T12:24:38.386Z,13.80
2023-03-06T12:25:38.351Z,13.50
2023-03-06T12:26:38.349Z,14.00
2023-03-06T12:27:38.337Z,14.50
2023-03-06T12:28:38.323Z,14.80
2023-03-06T12:29:38.297Z,15.10
2023-03-06T12:30:38.298Z,14.80
2023-03-06T12:31:38.333Z,14.50
2023-03-06T12:32:38.388Z,14.90
2023-03-06T12:33:38.249Z,14.80
2023-03-06T12:34:38.238Z,15.40
2023-03-06T12:35:38.271Z,15.80
2023-03-06T12:36:38.259Z,14.30
2023-03-06T12:37:38.197Z,15.40
2023-03-06T12:38:38.249Z,14.70
2023-03-06T12:39:38.173Z,15.30
2023-03-06T12:40:38.170Z,14.90
2023-03-06T12:41:38.167Z,14.70
2023-03-06T12:42:38.126Z,14.60
2023-03-06T12:43:40.078Z,15.20
2023-03-06T12:44:38.118Z,15.50
2023-03-06T12:45:38.270Z,15.60
2023-03-06T12:46:38.085Z,16.50
2023-03-06T12:47:38.079Z,16.40
2023-03-06T12:48:38.048Z,16.90
2023-03-06T12:49:38.052Z,16.50
2023-03-06T12:50:38.096Z,17.90
2023-03-06T12:51:38.040Z,16.60
2023-03-06T12:52:38.011Z,16.20
2023-03-06T12:53:37.995Z,16.00
2023-03-06T12:54:37.994Z,16.50
2023-03-06T12:55:37.984Z,16.70
2023-03-06T12:56:37.976Z,16.60
2023-03-06T12:57:37.946Z,17.00
2023-03-06T12:58:37.963Z,16.20
2023-03-06T12:59:37.928Z,15.90
2023-03-06T13:00:37.895Z,16.30
2023-03-06T13:01:38.008Z,17.90
2023-03-06T13:02:37.930Z,16.50
2023-03-06T13:03:37.865Z,16.10
2023-03-06T13:04:37.853Z,16.50
2023-03-06T13:05:37.840Z,16.40
2023-03-06T13:06:44.927Z,17.00